SHT4YL EGLL-EGAC
Flight info
| Callsign | SHT4YL |
|---|---|
| Flight time | 0h 49m |
| Altitude | 36000 |
| Route | ULTIB T420 TNT UL28 RODOL UM65 TENSO L603 BELOX DCT REMSI DCT NINEB M148 MAGEE |
| Aircraft | A320/M-SDE3FGHIKRWXY/S |
Departure
| Time | 2026-04-23 17:48 |
|---|---|
| Airport | London Heathrow Airport (EGLL) |
Arrival
| Time | 2026-04-23 18:38 |
|---|---|
| Airport | George Best Belfast City Airport (EGAC) |
| Time | Latitude | Longitude | Altitude | Speed | Heading |
|---|---|---|---|---|---|
| 2026-04-23 17:21 | 51.47395 | -0.48757 | 90 ft | 0 kts | 179° |
| 2026-04-23 17:39 | 51.47418 | -0.48757 | 88 ft | 4 kts | 179° |
| 2026-04-23 17:39 | 51.47445 | -0.48758 | 86 ft | 4 kts | 180° |
| 2026-04-23 17:40 | 51.47471 | -0.48760 | 87 ft | 4 kts | 156° |
| 2026-04-23 17:40 | 51.47486 | -0.48784 | 87 ft | 4 kts | 94° |
| 2026-04-23 17:40 | 51.47486 | -0.48802 | 87 ft | 2 kts | 90° |
| 2026-04-23 17:43 | 51.47487 | -0.48766 | 86 ft | 8 kts | 88° |
| 2026-04-23 17:43 | 51.47488 | -0.48659 | 86 ft | 11 kts | 89° |
| 2026-04-23 17:43 | 51.47484 | -0.48525 | 88 ft | 14 kts | 110° |
| 2026-04-23 17:44 | 51.47391 | -0.48473 | 86 ft | 17 kts | 179° |
| 2026-04-23 17:44 | 51.47262 | -0.48472 | 88 ft | 20 kts | 180° |
| 2026-04-23 17:44 | 51.47053 | -0.48470 | 90 ft | 11 kts | 180° |
| 2026-04-23 17:45 | 51.46968 | -0.48468 | 88 ft | 14 kts | 178° |
| 2026-04-23 17:45 | 51.46772 | -0.48467 | 86 ft | 14 kts | 180° |
| 2026-04-23 17:45 | 51.46700 | -0.48467 | 86 ft | 9 kts | 180° |
| 2026-04-23 17:46 | 51.46614 | -0.48467 | 86 ft | 1 kts | 179° |
| 2026-04-23 17:46 | 51.46594 | -0.48467 | 86 ft | 4 kts | 181° |
| 2026-04-23 17:46 | 51.46554 | -0.48469 | 87 ft | 7 kts | 180° |
| 2026-04-23 17:47 | 51.46493 | -0.48465 | 86 ft | 10 kts | 169° |
| 2026-04-23 17:47 | 51.46480 | -0.48413 | 87 ft | 0 kts | 87° |
| 2026-04-23 17:47 | 51.46480 | -0.48386 | 89 ft | 19 kts | 89° |
| 2026-04-23 17:48 | 51.46480 | -0.47738 | 86 ft | 93 kts | 89° |
| 2026-04-23 17:48 | 51.46489 | -0.46395 | 107 ft | 144 kts | 91° |
| 2026-04-23 17:48 | 51.46522 | -0.44812 | 725 ft | 141 kts | 88° |
| 2026-04-23 17:48 | 51.46595 | -0.43245 | 1429 ft | 140 kts | 82° |
| 2026-04-23 17:49 | 51.46778 | -0.41649 | 1859 ft | 156 kts | 72° |
| 2026-04-23 17:49 | 51.47362 | -0.40034 | 2207 ft | 180 kts | 55° |
| 2026-04-23 17:49 | 51.48196 | -0.38336 | 2591 ft | 206 kts | 54° |
| 2026-04-23 17:49 | 51.49155 | -0.36443 | 3116 ft | 231 kts | 53° |
| 2026-04-23 17:50 | 51.50220 | -0.34372 | 3847 ft | 246 kts | 53° |
| 2026-04-23 17:50 | 51.52310 | -0.29879 | 5717 ft | 256 kts | 69° |
| 2026-04-23 17:50 | 51.52911 | -0.27196 | 6665 ft | 260 kts | 72° |
| 2026-04-23 17:51 | 51.53740 | -0.24600 | 7601 ft | 267 kts | 52° |
| 2026-04-23 17:51 | 51.55231 | -0.22787 | 8502 ft | 277 kts | 25° |
| 2026-04-23 17:51 | 51.59161 | -0.22861 | 10439 ft | 293 kts | 353° |
| 2026-04-23 17:52 | 51.61197 | -0.23635 | 10897 ft | 315 kts | 343° |
| 2026-04-23 17:52 | 51.65289 | -0.27222 | 11825 ft | 347 kts | 331° |
| 2026-04-23 17:52 | 51.67362 | -0.29260 | 12565 ft | 351 kts | 332° |
| 2026-04-23 17:53 | 51.71613 | -0.33337 | 14094 ft | 359 kts | 333° |
| 2026-04-23 17:53 | 51.73778 | -0.35403 | 14791 ft | 363 kts | 333° |
| 2026-04-23 17:53 | 51.75963 | -0.37496 | 15454 ft | 367 kts | 332° |
| 2026-04-23 17:54 | 51.78167 | -0.39617 | 16012 ft | 371 kts | 332° |
| 2026-04-23 17:54 | 51.80393 | -0.41767 | 16678 ft | 375 kts | 332° |
| 2026-04-23 17:54 | 51.84911 | -0.46150 | 18016 ft | 381 kts | 331° |
| 2026-04-23 17:55 | 51.89504 | -0.50616 | 19266 ft | 389 kts | 330° |
| 2026-04-23 17:55 | 51.91839 | -0.52889 | 19832 ft | 394 kts | 330° |
| 2026-04-23 17:55 | 51.94204 | -0.55195 | 20412 ft | 399 kts | 330° |
| 2026-04-23 17:56 | 51.96597 | -0.57530 | 20977 ft | 404 kts | 329° |
| 2026-04-23 17:56 | 52.01457 | -0.62286 | 22112 ft | 412 kts | 329° |
| 2026-04-23 17:56 | 52.03917 | -0.64702 | 22656 ft | 416 kts | 329° |
| 2026-04-23 17:57 | 52.06407 | -0.67150 | 23209 ft | 420 kts | 329° |
| 2026-04-23 17:57 | 52.08919 | -0.69620 | 23768 ft | 424 kts | 328° |
| 2026-04-23 17:57 | 52.13976 | -0.74599 | 24671 ft | 431 kts | 328° |
| 2026-04-23 17:58 | 52.16558 | -0.77146 | 25105 ft | 435 kts | 328° |
| 2026-04-23 17:58 | 52.19160 | -0.79715 | 25530 ft | 439 kts | 328° |
| 2026-04-23 17:58 | 52.21780 | -0.82302 | 25950 ft | 442 kts | 328° |
| 2026-04-23 17:58 | 52.24430 | -0.84921 | 26357 ft | 445 kts | 328° |
| 2026-04-23 17:59 | 52.27080 | -0.87547 | 26760 ft | 449 kts | 328° |
| 2026-04-23 17:59 | 52.29757 | -0.90208 | 27146 ft | 452 kts | 328° |
| 2026-04-23 17:59 | 52.32459 | -0.92898 | 27535 ft | 456 kts | 327° |
| 2026-04-23 17:59 | 52.35176 | -0.95605 | 27935 ft | 459 kts | 327° |
| 2026-04-23 18:00 | 52.37913 | -0.98338 | 28317 ft | 463 kts | 327° |
| 2026-04-23 18:00 | 52.40663 | -1.01090 | 28818 ft | 462 kts | 328° |
| 2026-04-23 18:00 | 52.43394 | -1.03828 | 29457 ft | 458 kts | 328° |
| 2026-04-23 18:00 | 52.46078 | -1.06524 | 29896 ft | 459 kts | 328° |
| 2026-04-23 18:01 | 52.48807 | -1.09264 | 30278 ft | 462 kts | 328° |
| 2026-04-23 18:01 | 52.51555 | -1.12026 | 30588 ft | 465 kts | 328° |
| 2026-04-23 18:01 | 52.54318 | -1.14807 | 30903 ft | 466 kts | 328° |
| 2026-04-23 18:01 | 52.57090 | -1.17596 | 31224 ft | 468 kts | 328° |
| 2026-04-23 18:02 | 52.58964 | -1.19484 | 31446 ft | 469 kts | 328° |
| 2026-04-23 18:02 | 52.62652 | -1.23206 | 31954 ft | 469 kts | 328° |
| 2026-04-23 18:02 | 52.65431 | -1.26017 | 32347 ft | 469 kts | 328° |
| 2026-04-23 18:02 | 52.68200 | -1.28831 | 32825 ft | 467 kts | 328° |
| 2026-04-23 18:03 | 52.70964 | -1.31642 | 33316 ft | 465 kts | 328° |
| 2026-04-23 18:03 | 52.73713 | -1.34441 | 33924 ft | 463 kts | 328° |
| 2026-04-23 18:03 | 52.76455 | -1.37237 | 34376 ft | 462 kts | 328° |
| 2026-04-23 18:03 | 52.79192 | -1.40029 | 34727 ft | 463 kts | 328° |
| 2026-04-23 18:04 | 52.81929 | -1.42823 | 35113 ft | 462 kts | 328° |
| 2026-04-23 18:04 | 52.84660 | -1.45618 | 35506 ft | 461 kts | 328° |
| 2026-04-23 18:04 | 52.87378 | -1.48406 | 35922 ft | 459 kts | 328° |
| 2026-04-23 18:04 | 52.90092 | -1.51191 | 36255 ft | 459 kts | 328° |
| 2026-04-23 18:05 | 52.92762 | -1.53933 | 36410 ft | 452 kts | 329° |
| 2026-04-23 18:05 | 52.98043 | -1.59379 | 36431 ft | 439 kts | 329° |
| 2026-04-23 18:06 | 53.03198 | -1.64714 | 36445 ft | 439 kts | 329° |
| 2026-04-23 18:06 | 53.08383 | -1.70089 | 36443 ft | 439 kts | 329° |
| 2026-04-23 18:07 | 53.13570 | -1.75479 | 36443 ft | 440 kts | 329° |
| 2026-04-23 18:07 | 53.18755 | -1.80887 | 36454 ft | 440 kts | 329° |
| 2026-04-23 18:08 | 53.23057 | -1.85401 | 36451 ft | 440 kts | 329° |
| 2026-04-23 18:08 | 53.29167 | -1.91473 | 36427 ft | 440 kts | 332° |
| 2026-04-23 18:09 | 53.34539 | -1.96439 | 36429 ft | 440 kts | 332° |
| 2026-04-23 18:09 | 53.39897 | -2.01424 | 36431 ft | 441 kts | 331° |
| 2026-04-23 18:10 | 53.45239 | -2.06502 | 36434 ft | 441 kts | 331° |
| 2026-04-23 18:10 | 53.50519 | -2.11566 | 36463 ft | 438 kts | 331° |
| 2026-04-23 18:11 | 53.55803 | -2.16733 | 36468 ft | 436 kts | 326° |
| 2026-04-23 18:11 | 53.60148 | -2.23821 | 36466 ft | 438 kts | 307° |
| 2026-04-23 18:12 | 53.62870 | -2.32997 | 36456 ft | 440 kts | 293° |
| 2026-04-23 18:12 | 53.65080 | -2.42615 | 36452 ft | 440 kts | 293° |
| 2026-04-23 18:13 | 53.67284 | -2.52250 | 36450 ft | 441 kts | 292° |
| 2026-04-23 18:13 | 53.69478 | -2.61911 | 36440 ft | 440 kts | 293° |
| 2026-04-23 18:14 | 53.71290 | -2.69927 | 36455 ft | 440 kts | 292° |
| 2026-04-23 18:14 | 53.73814 | -2.81128 | 36452 ft | 439 kts | 292° |
| 2026-04-23 18:15 | 53.75970 | -2.90772 | 36433 ft | 438 kts | 292° |
| 2026-04-23 18:15 | 53.78121 | -3.00427 | 36431 ft | 438 kts | 292° |
| 2026-04-23 18:16 | 53.80263 | -3.10075 | 36431 ft | 438 kts | 292° |
| 2026-04-23 18:16 | 53.82393 | -3.19730 | 36426 ft | 438 kts | 292° |
| 2026-04-23 18:17 | 53.85573 | -3.34217 | 36436 ft | 437 kts | 292° |
| 2026-04-23 18:17 | 53.87676 | -3.43874 | 36431 ft | 437 kts | 291° |
| 2026-04-23 18:18 | 53.88727 | -3.48713 | 35939 ft | 440 kts | 292° |
| 2026-04-23 18:18 | 53.89798 | -3.53628 | 34832 ft | 449 kts | 292° |
| 2026-04-23 18:18 | 53.90881 | -3.58613 | 33776 ft | 453 kts | 292° |
| 2026-04-23 18:18 | 53.91959 | -3.63582 | 32702 ft | 456 kts | 292° |
| 2026-04-23 18:19 | 53.93047 | -3.68624 | 31836 ft | 454 kts | 291° |
| 2026-04-23 18:19 | 53.94124 | -3.73656 | 31115 ft | 451 kts | 291° |
| 2026-04-23 18:19 | 53.95187 | -3.78634 | 30537 ft | 446 kts | 291° |
| 2026-04-23 18:19 | 53.96362 | -3.83459 | 29879 ft | 440 kts | 298° |
| 2026-04-23 18:20 | 53.97853 | -3.87940 | 29316 ft | 432 kts | 301° |
| 2026-04-23 18:20 | 53.99345 | -3.92329 | 28740 ft | 426 kts | 301° |
| 2026-04-23 18:20 | 54.00815 | -3.96673 | 28186 ft | 421 kts | 301° |
| 2026-04-23 18:20 | 54.02259 | -4.00961 | 27619 ft | 416 kts | 301° |
| 2026-04-23 18:21 | 54.03683 | -4.05212 | 27096 ft | 411 kts | 301° |
| 2026-04-23 18:21 | 54.04636 | -4.08064 | 26737 ft | 409 kts | 300° |
| 2026-04-23 18:21 | 54.06021 | -4.12195 | 26225 ft | 405 kts | 302° |
| 2026-04-23 18:21 | 54.07597 | -4.16141 | 25714 ft | 402 kts | 306° |
| 2026-04-23 18:22 | 54.09213 | -4.20019 | 25219 ft | 400 kts | 306° |
| 2026-04-23 18:22 | 54.10818 | -4.23874 | 24729 ft | 398 kts | 305° |
| 2026-04-23 18:22 | 54.12417 | -4.27724 | 24261 ft | 397 kts | 305° |
| 2026-04-23 18:22 | 54.14008 | -4.31572 | 23749 ft | 396 kts | 304° |
| 2026-04-23 18:23 | 54.15590 | -4.35415 | 23269 ft | 394 kts | 304° |
| 2026-04-23 18:23 | 54.18716 | -4.43007 | 22322 ft | 388 kts | 304° |
| 2026-04-23 18:24 | 54.21795 | -4.50505 | 21359 ft | 383 kts | 304° |
| 2026-04-23 18:24 | 54.23294 | -4.54168 | 20876 ft | 380 kts | 304° |
| 2026-04-23 18:24 | 54.24806 | -4.57863 | 20375 ft | 378 kts | 304° |
| 2026-04-23 18:25 | 54.27804 | -4.65213 | 19364 ft | 375 kts | 303° |
| 2026-04-23 18:25 | 54.29291 | -4.68863 | 18849 ft | 373 kts | 303° |
| 2026-04-23 18:25 | 54.30772 | -4.72504 | 18291 ft | 372 kts | 303° |
| 2026-04-23 18:25 | 54.32241 | -4.76122 | 17765 ft | 368 kts | 303° |
| 2026-04-23 18:26 | 54.33693 | -4.79710 | 17264 ft | 365 kts | 303° |
| 2026-04-23 18:26 | 54.35132 | -4.83271 | 16754 ft | 362 kts | 303° |
| 2026-04-23 18:26 | 54.36560 | -4.86804 | 16244 ft | 359 kts | 303° |
| 2026-04-23 18:26 | 54.37977 | -4.90314 | 15741 ft | 356 kts | 303° |
| 2026-04-23 18:27 | 54.39381 | -4.93805 | 15234 ft | 354 kts | 302° |
| 2026-04-23 18:27 | 54.40774 | -4.97275 | 14744 ft | 352 kts | 302° |
| 2026-04-23 18:27 | 54.42164 | -5.00739 | 14237 ft | 351 kts | 302° |
| 2026-04-23 18:27 | 54.43545 | -5.04187 | 13707 ft | 349 kts | 302° |
| 2026-04-23 18:28 | 54.44915 | -5.07608 | 13204 ft | 346 kts | 302° |
| 2026-04-23 18:28 | 54.46280 | -5.10993 | 12726 ft | 343 kts | 302° |
| 2026-04-23 18:28 | 54.47619 | -5.14301 | 12243 ft | 340 kts | 302° |
| 2026-04-23 18:28 | 54.48968 | -5.17623 | 11761 ft | 338 kts | 302° |
| 2026-04-23 18:29 | 54.50340 | -5.20888 | 11283 ft | 336 kts | 308° |
| 2026-04-23 18:29 | 54.52004 | -5.23703 | 10816 ft | 336 kts | 320° |
| 2026-04-23 18:29 | 54.53818 | -5.26142 | 10662 ft | 324 kts | 320° |
| 2026-04-23 18:29 | 54.55557 | -5.28492 | 10539 ft | 312 kts | 320° |
| 2026-04-23 18:30 | 54.57234 | -5.30771 | 10390 ft | 302 kts | 320° |
| 2026-04-23 18:30 | 54.58874 | -5.33005 | 9991 ft | 301 kts | 320° |
| 2026-04-23 18:30 | 54.60514 | -5.35242 | 9661 ft | 298 kts | 320° |
| 2026-04-23 18:30 | 54.62135 | -5.37458 | 9285 ft | 297 kts | 320° |
| 2026-04-23 18:31 | 54.63750 | -5.39672 | 8908 ft | 296 kts | 320° |
| 2026-04-23 18:31 | 54.65363 | -5.41880 | 8542 ft | 296 kts | 319° |
| 2026-04-23 18:31 | 54.66979 | -5.44088 | 8130 ft | 297 kts | 320° |
| 2026-04-23 18:31 | 54.68590 | -5.46289 | 7660 ft | 293 kts | 320° |
| 2026-04-23 18:32 | 54.70182 | -5.48467 | 7011 ft | 291 kts | 320° |
| 2026-04-23 18:32 | 54.71763 | -5.50639 | 6361 ft | 289 kts | 320° |
| 2026-04-23 18:32 | 54.73329 | -5.52797 | 5731 ft | 286 kts | 320° |
| 2026-04-23 18:32 | 54.74885 | -5.54943 | 5004 ft | 287 kts | 320° |
| 2026-04-23 18:33 | 54.76319 | -5.57370 | 4226 ft | 294 kts | 307° |
| 2026-04-23 18:33 | 54.77531 | -5.60312 | 3434 ft | 305 kts | 296° |
| 2026-04-23 18:33 | 54.78015 | -5.63758 | 3064 ft | 294 kts | 266° |
| 2026-04-23 18:33 | 54.77567 | -5.67057 | 3001 ft | 272 kts | 240° |
| 2026-04-23 18:34 | 54.76481 | -5.69548 | 3013 ft | 250 kts | 218° |
| 2026-04-23 18:34 | 54.75123 | -5.71262 | 2979 ft | 236 kts | 211° |
| 2026-04-23 18:34 | 54.73816 | -5.72833 | 2755 ft | 220 kts | 211° |
| 2026-04-23 18:34 | 54.72602 | -5.74296 | 2480 ft | 205 kts | 211° |
| 2026-04-23 18:35 | 54.71469 | -5.75660 | 2238 ft | 191 kts | 210° |
| 2026-04-23 18:35 | 54.70417 | -5.76927 | 1968 ft | 178 kts | 210° |
| 2026-04-23 18:35 | 54.69445 | -5.78098 | 1725 ft | 161 kts | 210° |
| 2026-04-23 18:35 | 54.68590 | -5.79128 | 1517 ft | 141 kts | 209° |
| 2026-04-23 18:36 | 54.67801 | -5.80073 | 1326 ft | 136 kts | 210° |
| 2026-04-23 18:36 | 54.67027 | -5.80999 | 1132 ft | 134 kts | 211° |
| 2026-04-23 18:36 | 54.66257 | -5.81909 | 947 ft | 134 kts | 211° |
| 2026-04-23 18:36 | 54.65490 | -5.82820 | 807 ft | 134 kts | 211° |
| 2026-04-23 18:37 | 54.64729 | -5.83746 | 617 ft | 133 kts | 212° |
| 2026-04-23 18:37 | 54.63978 | -5.84678 | 426 ft | 133 kts | 210° |
| 2026-04-23 18:37 | 54.63216 | -5.85565 | 263 ft | 133 kts | 212° |
| 2026-04-23 18:37 | 54.62461 | -5.86478 | 62 ft | 132 kts | 210° |
| 2026-04-23 18:38 | 54.61761 | -5.87296 | 19 ft | 97 kts | 215° |
| 2026-04-23 18:38 | 54.61430 | -5.87694 | 12 ft | 22 kts | 217° |
| 2026-04-23 18:38 | 54.61409 | -5.87723 | 13 ft | 4 kts | 218° |
| 2026-04-23 18:38 | 54.61355 | -5.87783 | 14 ft | 13 kts | 193° |
| 2026-04-23 18:39 | 54.61278 | -5.87710 | 15 ft | 14 kts | 129° |
| 2026-04-23 18:39 | 54.61286 | -5.87565 | 18 ft | 15 kts | 32° |
| 2026-04-23 18:39 | 54.61377 | -5.87457 | 21 ft | 17 kts | 37° |
| 2026-04-23 18:39 | 54.61459 | -5.87310 | 21 ft | 18 kts | 38° |
| 2026-04-23 18:40 | 54.61498 | -5.87207 | 21 ft | 8 kts | 156° |
| 2026-04-23 18:40 | 54.61473 | -5.87196 | 24 ft | 3 kts | 155° |
| 2026-04-23 18:40 | 54.61466 | -5.87191 | 23 ft | 1 kts | 155° |
| 2026-04-23 18:40 | 54.61463 | -5.87188 | 22 ft | 0 kts | 155° |